createdAt,value
2018-06-28T00:02:22.401Z,21.26
2018-06-28T00:04:50.636Z,21.22
2018-06-28T00:07:18.913Z,21.18
2018-06-28T00:09:47.165Z,21.15
2018-06-28T00:12:15.389Z,21.13
2018-06-28T00:14:43.649Z,21.10
2018-06-28T00:17:11.929Z,21.06
2018-06-28T00:19:40.208Z,21.02
2018-06-28T00:22:08.505Z,20.97
2018-06-28T00:24:36.763Z,20.92
2018-06-28T00:27:04.985Z,20.87
2018-06-28T00:29:33.233Z,20.82
2018-06-28T00:32:01.522Z,20.77
2018-06-28T00:34:29.809Z,20.73
2018-06-28T00:36:58.042Z,20.71
2018-06-28T00:39:26.318Z,20.69
2018-06-28T00:41:54.549Z,20.68
2018-06-28T00:44:22.820Z,20.66
2018-06-28T00:46:51.077Z,20.63
2018-06-28T00:49:19.342Z,20.62
2018-06-28T00:51:47.587Z,20.61
2018-06-28T00:54:15.880Z,20.58
2018-06-28T00:56:44.119Z,20.55
2018-06-28T00:59:12.448Z,20.52
2018-06-28T01:01:40.676Z,20.48
2018-06-28T01:04:08.937Z,20.44
2018-06-28T01:06:37.193Z,20.40
2018-06-28T01:09:08.597Z,20.35
2018-06-28T01:11:37.136Z,20.31
2018-06-28T01:14:05.409Z,20.27
2018-06-28T01:16:33.669Z,20.23
2018-06-28T01:19:01.934Z,20.20
2018-06-28T01:21:30.181Z,20.16
2018-06-28T01:23:58.415Z,20.13
2018-06-28T01:26:26.621Z,20.08
2018-06-28T01:28:54.849Z,20.04
2018-06-28T01:31:23.117Z,20.02
2018-06-28T01:33:51.345Z,19.98
2018-06-28T01:36:19.581Z,19.95
2018-06-28T01:38:47.837Z,19.89
2018-06-28T01:41:16.103Z,19.86
2018-06-28T01:43:45.385Z,19.80
2018-06-28T01:46:13.882Z,19.76
2018-06-28T01:48:42.145Z,19.72
2018-06-28T01:51:10.462Z,19.70
2018-06-28T01:53:38.688Z,19.68
2018-06-28T01:56:06.973Z,19.64
2018-06-28T01:58:35.260Z,19.63
2018-06-28T02:01:03.561Z,19.58
2018-06-28T02:03:31.840Z,19.55
2018-06-28T02:06:00.095Z,19.51
2018-06-28T02:08:28.354Z,19.46
2018-06-28T02:10:56.632Z,19.44
2018-06-28T02:13:24.869Z,19.41
2018-06-28T02:15:53.141Z,19.39
2018-06-28T02:18:21.428Z,19.36
2018-06-28T02:20:49.660Z,19.32
2018-06-28T02:23:17.890Z,19.30
2018-06-28T02:25:46.161Z,19.26
2018-06-28T02:28:14.381Z,19.24
2018-06-28T02:30:42.615Z,19.22
2018-06-28T02:33:10.878Z,19.22
2018-06-28T02:35:39.101Z,19.19
2018-06-28T02:38:07.394Z,19.17
2018-06-28T02:40:35.681Z,19.15
2018-06-28T02:43:03.913Z,19.14
2018-06-28T02:45:32.121Z,19.10
2018-06-28T02:48:00.389Z,19.09
2018-06-28T02:50:28.683Z,19.09
2018-06-28T02:52:57.019Z,19.10
2018-06-28T02:55:25.241Z,19.10
2018-06-28T02:57:53.488Z,19.08
2018-06-28T03:00:21.739Z,19.06
2018-06-28T03:02:49.994Z,19.05
2018-06-28T03:05:18.253Z,19.04
2018-06-28T03:07:46.473Z,19.04
2018-06-28T03:10:14.723Z,19.03
2018-06-28T03:12:42.945Z,19.02
2018-06-28T03:15:11.220Z,19.00
2018-06-28T03:17:39.480Z,19.00
2018-06-28T03:20:07.702Z,19.01
2018-06-28T03:22:35.986Z,19.04
2018-06-28T03:25:04.265Z,19.05
2018-06-28T03:27:32.540Z,19.10
2018-06-28T03:30:00.753Z,19.15
2018-06-28T03:32:28.985Z,19.20
2018-06-28T03:34:57.228Z,19.23
2018-06-28T03:37:25.493Z,19.27
2018-06-28T03:39:53.733Z,19.27
2018-06-28T03:42:22.020Z,19.26
2018-06-28T03:44:50.233Z,19.29
2018-06-28T03:47:18.466Z,19.31
2018-06-28T03:49:46.704Z,19.30
2018-06-28T03:52:14.961Z,19.29
2018-06-28T03:54:43.223Z,19.25
2018-06-28T03:57:11.477Z,19.22
2018-06-28T03:59:39.745Z,19.21
2018-06-28T04:02:07.950Z,19.17
2018-06-28T04:04:36.246Z,19.16
2018-06-28T04:07:04.575Z,19.14
2018-06-28T04:09:32.917Z,19.12
2018-06-28T04:12:01.189Z,19.12
2018-06-28T04:14:29.511Z,19.12
2018-06-28T04:16:57.781Z,19.12
2018-06-28T04:19:26.019Z,19.12
2018-06-28T04:21:54.364Z,19.10
2018-06-28T04:24:22.649Z,19.11
2018-06-28T04:26:50.880Z,19.14
2018-06-28T04:29:19.141Z,19.16
2018-06-28T04:31:47.445Z,19.17
2018-06-28T04:34:15.713Z,19.17
2018-06-28T04:36:43.988Z,19.18
2018-06-28T04:39:13.414Z,19.17
2018-06-28T04:41:41.857Z,19.17
2018-06-28T04:44:10.097Z,19.19
2018-06-28T04:46:38.347Z,19.20
2018-06-28T04:49:06.711Z,19.20
2018-06-28T04:51:35.850Z,19.21
2018-06-28T04:54:04.443Z,19.23
2018-06-28T04:56:32.824Z,19.22
2018-06-28T04:59:01.035Z,19.23
2018-06-28T05:01:29.287Z,19.24
2018-06-28T05:03:57.514Z,19.24
2018-06-28T05:06:25.737Z,19.24
2018-06-28T05:08:53.979Z,19.24
2018-06-28T05:11:22.212Z,19.25
2018-06-28T05:13:50.461Z,19.25
2018-06-28T05:16:18.741Z,19.25
2018-06-28T05:18:47.000Z,19.25
2018-06-28T05:21:15.292Z,19.27
2018-06-28T05:23:43.530Z,19.28
2018-06-28T05:26:11.853Z,19.29
2018-06-28T05:28:40.380Z,19.31
2018-06-28T05:31:08.797Z,19.33
2018-06-28T05:33:37.072Z,19.38
2018-06-28T05:36:05.301Z,19.39
2018-06-28T05:38:33.560Z,19.41
2018-06-28T05:41:01.866Z,19.42
2018-06-28T05:43:30.113Z,19.44
2018-06-28T05:45:58.341Z,19.45
2018-06-28T05:48:26.555Z,19.48
2018-06-28T05:50:54.784Z,19.51
2018-06-28T05:53:23.023Z,19.52
2018-06-28T05:55:51.301Z,19.54
2018-06-28T05:58:19.578Z,19.56
2018-06-28T06:00:47.821Z,19.59
2018-06-28T06:03:16.121Z,19.59
2018-06-28T06:05:44.379Z,19.62
2018-06-28T06:08:12.673Z,19.69
2018-06-28T06:10:40.965Z,19.73
2018-06-28T06:13:09.202Z,19.80
2018-06-28T06:15:37.418Z,19.89
2018-06-28T06:18:06.105Z,19.98
2018-06-28T06:20:34.362Z,20.05
2018-06-28T06:23:02.633Z,20.11
2018-06-28T06:25:30.874Z,20.18
2018-06-28T06:27:59.135Z,20.28
2018-06-28T06:30:27.425Z,20.33
2018-06-28T06:32:55.828Z,20.41
2018-06-28T06:35:24.177Z,20.42
2018-06-28T06:37:52.681Z,20.45
2018-06-28T06:40:20.924Z,20.48
2018-06-28T06:42:49.176Z,20.53
2018-06-28T06:45:17.391Z,20.54
2018-06-28T06:47:45.996Z,20.58
2018-06-28T06:50:14.307Z,20.63
2018-06-28T06:52:42.549Z,20.66
2018-06-28T06:55:10.796Z,20.67
2018-06-28T06:57:39.206Z,20.73
2018-06-28T07:00:07.465Z,20.77
2018-06-28T07:02:35.731Z,20.78
2018-06-28T07:05:04.114Z,20.83
2018-06-28T07:07:32.377Z,20.86
2018-06-28T07:10:00.641Z,20.91
2018-06-28T07:12:28.885Z,20.94
2018-06-28T07:14:57.246Z,20.95
2018-06-28T07:17:25.501Z,21.00
2018-06-28T07:19:53.730Z,21.02
2018-06-28T07:22:21.993Z,21.06
2018-06-28T07:24:50.217Z,21.11
2018-06-28T07:27:18.438Z,21.15
2018-06-28T07:29:46.729Z,21.19
2018-06-28T07:32:15.025Z,21.23
2018-06-28T07:34:43.262Z,21.29
2018-06-28T07:37:11.500Z,21.33
2018-06-28T07:39:39.721Z,21.38
2018-06-28T07:42:08.094Z,21.45
2018-06-28T07:44:36.312Z,21.51
2018-06-28T07:47:04.601Z,21.52
2018-06-28T07:49:33.035Z,21.58
2018-06-28T07:52:01.249Z,21.63
2018-06-28T07:54:29.493Z,21.68
2018-06-28T07:56:57.733Z,21.72
2018-06-28T07:59:26.047Z,21.75
2018-06-28T08:01:54.636Z,21.78
2018-06-28T08:04:22.913Z,21.80
2018-06-28T08:06:51.207Z,21.84
2018-06-28T08:09:25.053Z,21.87
2018-06-28T08:11:53.297Z,21.89
2018-06-28T08:14:21.665Z,21.92
2018-06-28T08:16:50.031Z,21.95
2018-06-28T08:19:18.324Z,21.97
2018-06-28T08:21:46.590Z,22.01
2018-06-28T08:24:14.829Z,22.01
2018-06-28T08:26:43.061Z,22.02
2018-06-28T08:29:11.801Z,22.06
2018-06-28T08:31:40.160Z,22.11
2018-06-28T08:34:08.477Z,22.12
2018-06-28T08:36:36.767Z,22.15
2018-06-28T08:39:07.521Z,22.17
2018-06-28T08:41:35.994Z,22.19
2018-06-28T08:44:04.363Z,22.23
2018-06-28T08:46:32.796Z,22.26
2018-06-28T08:49:01.114Z,22.28
2018-06-28T08:51:29.293Z,22.32
2018-06-28T08:53:57.553Z,22.36
2018-06-28T08:56:25.813Z,22.36
2018-06-28T08:58:54.089Z,22.40
2018-06-28T09:01:22.328Z,22.42
2018-06-28T09:03:50.612Z,22.43
2018-06-28T09:06:19.117Z,22.46
2018-06-28T09:08:47.426Z,22.48
2018-06-28T09:11:15.679Z,22.51
2018-06-28T09:13:43.952Z,22.53
2018-06-28T09:16:12.286Z,22.56
2018-06-28T09:18:40.548Z,22.54
2018-06-28T09:21:08.837Z,22.55
2018-06-28T09:23:37.090Z,22.53
2018-06-28T09:26:05.429Z,22.54
2018-06-28T09:28:33.721Z,22.53
2018-06-28T09:31:01.985Z,22.52
2018-06-28T09:33:30.221Z,22.53
2018-06-28T09:35:58.464Z,22.55
2018-06-28T09:38:26.697Z,22.57
2018-06-28T09:40:54.965Z,22.59
2018-06-28T09:43:23.261Z,22.63
2018-06-28T09:45:51.513Z,22.67
2018-06-28T09:48:19.765Z,22.75
2018-06-28T09:50:48.034Z,22.83
2018-06-28T09:53:16.344Z,22.88
2018-06-28T09:55:44.709Z,22.92
2018-06-28T09:58:13.042Z,23.00
2018-06-28T10:00:43.844Z,23.05
2018-06-28T10:03:12.784Z,23.10
2018-06-28T10:05:41.093Z,23.14
2018-06-28T10:08:10.085Z,23.21
2018-06-28T10:10:38.281Z,23.27
2018-06-28T10:13:06.613Z,23.30
2018-06-28T10:15:34.927Z,23.34
2018-06-28T10:18:03.238Z,23.40
2018-06-28T10:20:31.494Z,23.48
2018-06-28T10:22:59.768Z,23.52
2018-06-28T10:25:28.060Z,23.56
2018-06-28T10:27:56.321Z,23.60
2018-06-28T10:30:24.519Z,23.65
2018-06-28T10:32:52.806Z,23.69
2018-06-28T10:35:21.045Z,23.76
2018-06-28T10:37:49.333Z,23.83
2018-06-28T10:40:17.590Z,23.98
2018-06-28T10:42:45.945Z,24.10
2018-06-28T10:45:14.363Z,24.24
2018-06-28T10:47:42.636Z,24.34
2018-06-28T10:50:11.421Z,24.49
2018-06-28T10:52:39.697Z,24.68
2018-06-28T10:55:07.941Z,24.94
2018-06-28T10:57:36.293Z,25.22
2018-06-28T11:00:04.867Z,25.49
2018-06-28T11:02:33.180Z,25.78
2018-06-28T11:05:01.413Z,26.03
2018-06-28T11:07:29.750Z,26.24
2018-06-28T11:09:58.005Z,26.40
2018-06-28T11:12:26.223Z,26.54
2018-06-28T11:14:54.509Z,26.69
2018-06-28T11:17:22.761Z,26.82
2018-06-28T11:19:51.018Z,27.00
2018-06-28T11:22:19.266Z,27.20
2018-06-28T11:24:47.528Z,27.33
2018-06-28T11:27:15.774Z,27.49
2018-06-28T11:29:44.029Z,27.60
2018-06-28T11:32:12.264Z,27.84
2018-06-28T11:34:40.511Z,27.99
2018-06-28T11:37:08.789Z,28.19
2018-06-28T11:39:37.033Z,28.30
2018-06-28T11:42:05.416Z,28.41
2018-06-28T11:44:33.641Z,28.54
2018-06-28T11:47:01.897Z,28.69
2018-06-28T11:49:30.128Z,28.81
2018-06-28T11:51:58.352Z,28.89
2018-06-28T11:54:26.603Z,29.03
2018-06-28T11:56:54.855Z,29.07
2018-06-28T11:59:23.166Z,28.89
2018-06-28T12:01:51.633Z,28.77
2018-06-28T12:04:19.933Z,28.88
2018-06-28T12:06:48.173Z,28.97
2018-06-28T12:09:16.448Z,29.16
2018-06-28T12:11:44.756Z,29.36
2018-06-28T12:14:13.029Z,29.54
2018-06-28T12:16:41.304Z,29.66
2018-06-28T12:19:09.565Z,29.75
2018-06-28T12:21:37.836Z,29.82
2018-06-28T12:24:06.390Z,29.68
2018-06-28T12:26:34.625Z,29.43
2018-06-28T12:29:02.928Z,29.46
2018-06-28T12:31:31.180Z,29.62
2018-06-28T12:33:59.427Z,29.74
2018-06-28T12:36:27.740Z,29.88
2018-06-28T12:38:56.090Z,29.98
2018-06-28T12:41:24.453Z,30.10
2018-06-28T12:43:52.696Z,30.23
2018-06-28T12:46:26.615Z,30.39
2018-06-28T12:48:55.850Z,30.46
2018-06-28T12:51:34.197Z,30.55
2018-06-28T12:54:02.441Z,30.55
2018-06-28T12:56:31.939Z,30.55
2018-06-28T12:59:02.627Z,30.64
2018-06-28T13:01:31.177Z,30.68
2018-06-28T13:03:59.592Z,30.80
2018-06-28T13:06:27.856Z,30.80
2018-06-28T13:08:56.654Z,30.88
2018-06-28T13:11:25.364Z,31.00
2018-06-28T13:13:53.843Z,31.09
2018-06-28T13:16:23.190Z,31.10
2018-06-28T13:18:51.472Z,31.16
2018-06-28T13:21:19.693Z,31.29
2018-06-28T13:23:47.973Z,31.34
2018-06-28T13:26:17.150Z,31.38
2018-06-28T13:28:45.966Z,31.44
2018-06-28T13:31:14.361Z,31.45
2018-06-28T13:33:42.720Z,31.40
2018-06-28T13:36:10.968Z,31.41
2018-06-28T13:38:39.221Z,31.42
2018-06-28T13:41:07.826Z,31.45
2018-06-28T13:43:35.912Z,31.36
2018-06-28T13:46:04.185Z,31.14
2018-06-28T13:48:32.440Z,30.99
2018-06-28T13:51:00.953Z,31.00
2018-06-28T13:53:29.236Z,30.86
2018-06-28T13:55:57.483Z,30.92
2018-06-28T13:58:25.725Z,31.05
2018-06-28T14:00:54.027Z,31.17
2018-06-28T14:03:22.468Z,31.22
2018-06-28T14:05:50.563Z,31.12
2018-06-28T14:08:18.869Z,31.07
2018-06-28T14:10:47.141Z,31.04
2018-06-28T14:13:15.615Z,31.12
2018-06-28T14:15:43.995Z,31.16
2018-06-28T14:18:12.339Z,31.23
2018-06-28T14:20:40.645Z,31.23
2018-06-28T14:23:09.034Z,31.24
2018-06-28T14:25:37.349Z,31.20
2018-06-28T14:28:05.749Z,31.03
2018-06-28T14:30:34.003Z,31.01
2018-06-28T14:33:02.337Z,30.99
2018-06-28T14:35:30.711Z,31.00
2018-06-28T14:37:58.959Z,31.03
2018-06-28T14:40:27.301Z,31.04
2018-06-28T14:42:55.609Z,31.04
2018-06-28T14:45:23.965Z,31.04
2018-06-28T14:47:52.256Z,30.90
2018-06-28T14:50:20.630Z,30.84
2018-06-28T14:52:48.901Z,30.77
2018-06-28T14:55:17.184Z,30.61
2018-06-28T14:57:45.585Z,30.32
2018-06-28T15:00:13.845Z,30.22
2018-06-28T15:02:42.080Z,30.02
2018-06-28T15:05:10.402Z,29.79
2018-06-28T15:07:38.653Z,29.58
2018-06-28T15:10:06.933Z,29.45
2018-06-28T15:12:35.168Z,29.38
2018-06-28T15:15:03.481Z,29.35
2018-06-28T15:17:31.757Z,29.28
2018-06-28T15:19:59.984Z,29.32
2018-06-28T15:22:28.239Z,29.43
2018-06-28T15:24:56.505Z,29.47
2018-06-28T15:27:24.798Z,29.56
2018-06-28T15:29:52.997Z,29.63
2018-06-28T15:32:21.253Z,29.66
2018-06-28T15:34:49.487Z,29.51
2018-06-28T15:37:17.775Z,29.47
2018-06-28T15:39:46.032Z,29.59
2018-06-28T15:42:14.378Z,29.60
2018-06-28T15:44:42.616Z,29.61
2018-06-28T15:47:10.922Z,29.69
2018-06-28T15:49:39.216Z,29.83
2018-06-28T15:52:07.602Z,29.90
2018-06-28T15:54:35.862Z,29.99
2018-06-28T15:57:04.153Z,30.10
2018-06-28T15:59:32.402Z,30.19
2018-06-28T16:02:00.666Z,30.13
2018-06-28T16:04:28.953Z,30.27
2018-06-28T16:06:57.292Z,30.55
2018-06-28T16:09:25.671Z,31.06
2018-06-28T16:11:53.909Z,31.76
2018-06-28T16:14:22.189Z,32.35
2018-06-28T16:16:50.501Z,32.70
2018-06-28T16:19:18.813Z,32.67
2018-06-28T16:21:47.117Z,32.04
2018-06-28T16:24:15.393Z,32.03
2018-06-28T16:26:45.047Z,32.39
2018-06-28T16:29:14.169Z,32.84
2018-06-28T16:31:43.102Z,33.28
2018-06-28T16:34:12.037Z,33.42
2018-06-28T16:36:40.511Z,34.00
2018-06-28T16:39:10.288Z,34.29
2018-06-28T16:41:38.682Z,34.66
2018-06-28T16:44:07.093Z,34.65
2018-06-28T16:46:35.496Z,34.75
2018-06-28T16:49:03.817Z,34.99
2018-06-28T16:51:32.089Z,34.96
2018-06-28T16:54:00.393Z,34.79
2018-06-28T16:56:28.673Z,34.75
2018-06-28T16:58:57.085Z,34.96
2018-06-28T17:01:25.379Z,34.71
2018-06-28T17:03:53.657Z,34.37
2018-06-28T17:06:21.894Z,34.02
2018-06-28T17:08:50.210Z,33.81
2018-06-28T17:11:18.500Z,33.69
2018-06-28T17:13:46.741Z,33.21
2018-06-28T17:16:15.005Z,33.11
2018-06-28T17:18:43.328Z,32.99
2018-06-28T17:21:11.631Z,32.64
2018-06-28T17:23:39.886Z,32.23
2018-06-28T17:26:08.132Z,31.93
2018-06-28T17:28:36.365Z,32.03
2018-06-28T17:31:04.641Z,31.91
2018-06-28T17:33:32.949Z,31.76
2018-06-28T17:36:01.205Z,31.59
2018-06-28T17:38:29.468Z,31.43
2018-06-28T17:40:57.725Z,31.31
2018-06-28T17:43:25.999Z,31.27
2018-06-28T17:45:54.307Z,31.29
2018-06-28T17:48:22.586Z,31.32
2018-06-28T17:50:50.808Z,30.99
2018-06-28T17:53:19.059Z,30.86
2018-06-28T17:55:47.320Z,30.75
2018-06-28T17:58:15.628Z,30.40
2018-06-28T18:00:43.918Z,30.00
2018-06-28T18:03:12.175Z,29.45
2018-06-28T18:05:40.421Z,29.14
2018-06-28T18:08:08.837Z,28.99
2018-06-28T18:10:37.124Z,28.78
2018-06-28T18:13:06.529Z,28.61
2018-06-28T18:15:34.845Z,28.45
2018-06-28T18:18:03.102Z,28.30
2018-06-28T18:20:31.443Z,28.09
2018-06-28T18:22:59.792Z,27.93
2018-06-28T18:25:28.062Z,27.79
2018-06-28T18:27:56.389Z,27.71
2018-06-28T18:30:24.748Z,27.65
2018-06-28T18:32:53.286Z,27.56
2018-06-28T18:35:21.624Z,27.42
2018-06-28T18:37:49.900Z,27.30
2018-06-28T18:40:18.145Z,27.26
2018-06-28T18:42:46.536Z,27.18
2018-06-28T18:45:15.307Z,27.11
2018-06-28T18:47:43.644Z,26.97
2018-06-28T18:50:12.212Z,27.00
2018-06-28T18:52:40.674Z,26.95
2018-06-28T18:55:09.111Z,26.88
2018-06-28T18:57:37.530Z,26.85
2018-06-28T19:00:06.288Z,26.81
2018-06-28T19:02:36.913Z,26.73
2018-06-28T19:05:05.640Z,26.65
2018-06-28T19:07:34.263Z,26.61
2018-06-28T19:10:07.948Z,26.62
2018-06-28T19:12:36.400Z,26.58
2018-06-28T19:15:10.111Z,26.54
2018-06-28T19:17:38.561Z,26.46
2018-06-28T19:20:07.060Z,26.42
2018-06-28T19:22:40.811Z,26.37
2018-06-28T19:25:09.214Z,26.31
2018-06-28T19:27:37.693Z,26.31
2018-06-28T19:30:11.333Z,26.23
2018-06-28T19:32:39.820Z,26.13
2018-06-28T19:35:08.215Z,26.14
2018-06-28T19:37:42.108Z,26.11
2018-06-28T19:40:16.001Z,25.98
2018-06-28T19:42:49.784Z,26.01
2018-06-28T19:45:18.405Z,25.93
2018-06-28T19:47:46.880Z,25.89
2018-06-28T19:50:20.606Z,25.78
2018-06-28T19:53:00.733Z,25.75
2018-06-28T19:55:29.143Z,25.75
2018-06-28T19:57:57.610Z,25.69
2018-06-28T20:00:31.372Z,25.65
2018-06-28T20:03:06.133Z,25.59
2018-06-28T20:05:34.499Z,25.42
2018-06-28T20:08:03.150Z,25.44
2018-06-28T20:10:31.591Z,25.38
2018-06-28T20:13:05.166Z,25.31
2018-06-28T20:15:50.445Z,25.25
2018-06-28T20:18:24.153Z,25.20
2018-06-28T20:20:52.529Z,25.14
2018-06-28T20:23:21.317Z,25.06
2018-06-28T20:25:50.059Z,24.96
2018-06-28T20:28:23.563Z,24.93
2018-06-28T20:30:57.319Z,24.84
2018-06-28T20:33:30.907Z,24.78
2018-06-28T20:35:59.909Z,24.70
2018-06-28T20:40:55.879Z,24.62
2018-06-28T20:43:24.319Z,24.57
2018-06-28T20:45:52.873Z,24.56
2018-06-28T20:48:21.531Z,24.51
2018-06-28T20:50:50.533Z,24.47
2018-06-28T20:53:18.911Z,24.44
2018-06-28T20:55:47.323Z,24.43
2018-06-28T20:58:15.647Z,24.41
2018-06-28T21:00:44.003Z,24.39
2018-06-28T21:03:12.459Z,24.36
2018-06-28T21:05:40.822Z,24.32
2018-06-28T21:08:09.306Z,24.29
2018-06-28T21:10:37.628Z,24.25
2018-06-28T21:13:06.244Z,24.20
2018-06-28T21:15:34.650Z,24.16
2018-06-28T21:18:03.051Z,24.13
2018-06-28T21:20:31.436Z,24.10
2018-06-28T21:22:59.799Z,24.06
2018-06-28T21:25:28.251Z,24.03
2018-06-28T21:27:56.599Z,24.00
2018-06-28T21:30:24.990Z,23.98
2018-06-28T21:32:53.391Z,23.97
2018-06-28T21:35:21.857Z,23.92
2018-06-28T21:37:50.199Z,23.87
2018-06-28T21:40:18.676Z,23.82
2018-06-28T21:42:47.020Z,23.78
2018-06-28T21:45:15.411Z,23.76
2018-06-28T21:47:43.813Z,23.74
2018-06-28T21:50:12.244Z,23.70
2018-06-28T21:52:40.648Z,23.65
2018-06-28T21:55:09.069Z,23.63
2018-06-28T21:57:37.444Z,23.61
2018-06-28T22:00:07.652Z,23.57
2018-06-28T22:02:36.007Z,23.53
2018-06-28T22:05:04.428Z,23.51
2018-06-28T22:07:32.855Z,23.50
2018-06-28T22:10:01.282Z,23.47
2018-06-28T22:12:29.655Z,23.46
2018-06-28T22:14:58.069Z,23.48
2018-06-28T22:17:26.468Z,23.50
2018-06-28T22:19:54.888Z,23.51
2018-06-28T22:22:23.259Z,23.49
2018-06-28T22:24:51.655Z,23.53
2018-06-28T22:27:20.042Z,23.56
2018-06-28T22:29:48.456Z,23.56
2018-06-28T22:32:16.861Z,23.55
2018-06-28T22:34:45.286Z,23.52
2018-06-28T22:37:13.797Z,23.51
2018-06-28T22:39:42.330Z,23.51
2018-06-28T22:42:10.756Z,23.52
2018-06-28T22:44:39.184Z,23.51
2018-06-28T22:47:07.562Z,23.50
2018-06-28T22:49:35.967Z,23.47
2018-06-28T22:52:04.368Z,23.47
2018-06-28T22:54:32.782Z,23.46
2018-06-28T22:57:01.186Z,23.42
2018-06-28T22:59:29.643Z,23.37
2018-06-28T23:01:58.122Z,23.33
2018-06-28T23:04:26.564Z,23.30
2018-06-28T23:06:55.072Z,23.28
2018-06-28T23:09:23.374Z,23.28
2018-06-28T23:11:51.777Z,23.26
2018-06-28T23:14:20.212Z,23.24
2018-06-28T23:16:48.599Z,23.22
2018-06-28T23:19:16.977Z,23.23
2018-06-28T23:21:45.335Z,23.19
2018-06-28T23:24:13.715Z,23.19
2018-06-28T23:26:42.089Z,23.17
2018-06-28T23:29:10.506Z,23.17
2018-06-28T23:31:38.951Z,23.14
2018-06-28T23:34:07.372Z,23.11
2018-06-28T23:36:35.839Z,23.12
2018-06-28T23:39:06.507Z,23.11
2018-06-28T23:41:34.851Z,23.13
2018-06-28T23:44:03.181Z,23.13
2018-06-28T23:46:31.510Z,23.10
2018-06-28T23:48:59.957Z,23.08
2018-06-28T23:51:28.299Z,23.07
2018-06-28T23:53:56.717Z,23.06
2018-06-28T23:56:25.135Z,23.01
2018-06-28T23:58:53.552Z,23.05
